Time;durP1;ratioP1;P1;durP2;ratioP2;P2;SDS_P1;SDS_P2;PMS_P1;PMS_P2;Temp;Humidity;BMP_temperature;BMP_pressure;BME280_temperature;BME280_humidity;BME280_pressure;Samples;Min_cycle;Max_cycle;Signal;HPM_P1;HPM_P2
2023/06/10 00:00:13;;;;;;;7.88;7.10;;;23.10;68.80;;;;;;6241308;23;20001;-72
2023/06/10 00:02:39;;;;;;;7.90;7.13;;;23.00;68.90;;;;;;6241392;23;20111;-72
2023/06/10 00:05:04;;;;;;;10.93;6.95;;;23.00;69.30;;;;;;6240867;23;20007;-72
2023/06/10 00:07:30;;;;;;;8.60;6.90;;;23.00;69.10;;;;;;6241590;23;20389;-72
2023/06/10 00:09:57;;;;;;;9.52;7.50;;;22.90;69.00;;;;;;6241220;23;20405;-72
2023/06/10 00:12:22;;;;;;;7.22;6.63;;;22.90;69.20;;;;;;6214526;23;20023;-71
2023/06/10 00:14:50;;;;;;;7.90;7.15;;;22.90;69.20;;;;;;6241381;23;19996;-72
2023/06/10 00:17:15;;;;;;;7.57;6.88;;;22.90;69.30;;;;;;6214390;23;20103;-72
2023/06/10 00:19:41;;;;;;;7.75;6.97;;;22.90;69.50;;;;;;6240871;23;20076;-71
2023/06/10 00:22:08;;;;;;;8.23;7.40;;;22.80;69.40;;;;;;6241616;23;20000;-72
2023/06/10 00:24:34;;;;;;;8.10;6.65;;;22.80;69.40;;;;;;6241272;23;20322;-72
2023/06/10 00:26:59;;;;;;;7.93;6.95;;;22.80;69.50;;;;;;6241196;23;20075;-72
2023/06/10 00:29:25;;;;;;;10.13;7.95;;;22.80;69.40;;;;;;6241188;23;20011;-72
2023/06/10 00:31:53;;;;;;;7.97;7.18;;;22.70;69.40;;;;;;6241256;23;20453;-71
2023/06/10 00:34:19;;;;;;;8.25;7.47;;;22.70;69.40;;;;;;6240581;23;20030;-71
2023/06/10 00:36:45;;;;;;;6.50;5.90;;;22.60;69.30;;;;;;6241251;23;20005;-72
2023/06/10 00:39:10;;;;;;;8.85;7.82;;;22.60;69.30;;;;;;6241275;23;20004;-72
2023/06/10 00:41:36;;;;;;;8.38;7.57;;;22.60;69.40;;;;;;6241446;23;20299;-72
2023/06/10 00:44:02;;;;;;;9.18;7.00;;;22.60;69.20;;;;;;6242027;23;20000;-71
2023/06/10 00:46:27;;;;;;;8.20;7.00;;;22.50;69.10;;;;;;6242999;23;20000;-72
2023/06/10 00:48:53;;;;;;;6.80;6.13;;;22.50;69.10;;;;;;6242256;23;20008;-71
2023/06/10 00:51:19;;;;;;;8.27;7.38;;;22.40;69.10;;;;;;6243023;23;19996;-71
2023/06/10 00:53:45;;;;;;;8.93;7.47;;;22.40;69.10;;;;;;6243086;23;20107;-71
2023/06/10 00:56:10;;;;;;;7.20;6.50;;;22.40;69.10;;;;;;6242860;23;20082;-71
2023/06/10 00:58:36;;;;;;;7.78;7.00;;;22.30;69.10;;;;;;6243265;23;20035;-71
2023/06/10 01:01:03;;;;;;;7.85;7.05;;;22.30;69.10;;;;;;6243340;23;19996;-71
2023/06/10 01:03:29;;;;;;;9.35;7.25;;;22.20;68.90;;;;;;6242413;23;20080;-72
2023/06/10 01:06:14;;;;;;;7.18;6.43;;;22.10;69.00;;;;;;6243043;23;20039;-71
2023/06/10 01:09:06;;;;;;;8.35;7.55;;;22.20;69.00;;;;;;6243056;23;20004;-71
2023/06/10 01:11:44;;;;;;;7.72;6.82;;;22.10;69.10;;;;;;6215962;23;20004;-71
2023/06/10 01:14:10;;;;;;;9.15;8.05;;;22.10;69.10;;;;;;6243170;23;20000;-71
2023/06/10 01:16:36;;;;;;;8.18;7.18;;;22.10;69.00;;;;;;6242841;23;20323;-71
2023/06/10 01:19:03;;;;;;;9.20;7.18;;;22.00;69.00;;;;;;6242671;23;20054;-71
2023/06/10 01:21:28;;;;;;;7.57;6.88;;;22.00;69.00;;;;;;6242757;23;20326;-71
2023/06/10 01:23:56;;;;;;;11.27;7.55;;;22.00;69.00;;;;;;6215594;23;20000;-71
2023/06/10 01:26:32;;;;;;;10.55;7.15;;;21.90;69.00;;;;;;6242659;23;20026;-71
2023/06/10 01:29:04;;;;;;;9.25;6.38;;;21.90;68.90;;;;;;6242618;23;20016;-71
2023/06/10 01:31:45;;;;;;;10.73;7.20;;;21.80;68.90;;;;;;6242785;23;20430;-71
2023/06/10 01:34:13;;;;;;;6.80;6.15;;;21.80;68.90;;;;;;6243102;23;20219;-71
2023/06/10 01:36:41;;;;;;;6.22;5.65;;;21.80;69.10;;;;;;6242280;23;20001;-71
2023/06/10 01:39:10;;;;;;;7.93;6.50;;;21.70;69.10;;;;;;6215833;23;20031;-71
2023/06/10 01:41:36;;;;;;;6.57;5.97;;;21.70;69.20;;;;;;6243159;23;20003;-71
2023/06/10 01:44:02;;;;;;;7.95;6.32;;;21.70;69.10;;;;;;6242870;23;20062;-71
2023/06/10 01:46:28;;;;;;;7.13;6.45;;;21.60;69.10;;;;;;6242193;23;20373;-71
2023/06/10 01:48:53;;;;;;;7.07;6.38;;;21.60;69.30;;;;;;6215559;23;19996;-71
2023/06/10 01:51:19;;;;;;;11.05;6.38;;;21.60;69.30;;;;;;6242246;23;20000;-71
2023/06/10 01:53:44;;;;;;;8.15;6.60;;;21.60;69.40;;;;;;6215395;23;20039;-71
2023/06/10 01:56:16;;;;;;;8.77;6.47;;;21.50;69.40;;;;;;6241818;23;19996;-71
2023/06/10 01:58:42;;;;;;;7.75;5.93;;;21.40;69.40;;;;;;6215591;23;20011;-71
2023/06/10 02:01:07;;;;;;;7.35;6.38;;;21.40;69.50;;;;;;6242154;23;20008;-71
2023/06/10 02:03:33;;;;;;;7.00;6.28;;;21.40;69.70;;;;;;6242713;23;20432;-71
2023/06/10 02:05:58;;;;;;;7.43;5.93;;;21.30;69.70;;;;;;6242338;23;20050;-71
2023/06/10 02:08:24;;;;;;;10.00;7.05;;;21.30;69.70;;;;;;6242246;23;20619;-71
2023/06/10 02:10:49;;;;;;;9.13;6.55;;;21.20;69.70;;;;;;6242219;23;20390;-71
2023/06/10 02:13:15;;;;;;;7.32;6.50;;;21.20;70.00;;;;;;6242427;23;20057;-71
2023/06/10 02:15:40;;;;;;;7.95;6.32;;;21.20;70.00;;;;;;6241957;23;20000;-71
2023/06/10 02:18:06;;;;;;;6.30;5.70;;;21.20;70.20;;;;;;6242451;23;20070;-71
2023/06/10 02:20:31;;;;;;;6.65;6.05;;;21.10;70.20;;;;;;6242224;23;20019;-71
2023/06/10 02:22:58;;;;;;;8.05;6.82;;;21.10;70.30;;;;;;6242272;23;20000;-71
2023/06/10 02:25:24;;;;;;;7.35;5.90;;;21.10;70.60;;;;;;6241867;23;20035;-71
2023/06/10 02:27:49;;;;;;;14.18;7.47;;;21.00;70.80;;;;;;6242069;23;20008;-71
2023/06/10 02:30:15;;;;;;;8.73;6.65;;;21.00;70.80;;;;;;6241509;23;20027;-71
2023/06/10 02:32:42;;;;;;;9.50;5.72;;;21.00;71.10;;;;;;6242083;23;20398;-71
2023/06/10 02:35:07;;;;;;;7.65;5.93;;;20.90;71.20;;;;;;6241704;23;20011;-71
2023/06/10 02:37:33;;;;;;;8.43;6.13;;;20.90;71.50;;;;;;6241598;23;20035;-71
2023/06/10 02:39:59;;;;;;;9.90;7.22;;;20.90;71.60;;;;;;6241197;23;19996;-71
2023/06/10 02:42:24;;;;;;;8.30;5.97;;;20.80;71.90;;;;;;6239735;23;20000;-71
2023/06/10 02:44:50;;;;;;;13.48;6.75;;;20.80;72.20;;;;;;6238790;23;20071;-71
2023/06/10 02:47:15;;;;;;;8.02;6.57;;;20.80;72.40;;;;;;6239547;23;20086;-71
2023/06/10 02:49:41;;;;;;;9.13;6.53;;;20.80;72.60;;;;;;6239256;23;20000;-71
2023/06/10 02:52:08;;;;;;;10.45;5.82;;;20.70;72.70;;;;;;6240423;23;20382;-71
2023/06/10 02:54:33;;;;;;;8.75;6.30;;;20.70;72.90;;;;;;6241812;23;20088;-71
2023/06/10 02:56:59;;;;;;;10.48;7.05;;;20.60;73.10;;;;;;6241366;23;20149;-72
2023/06/10 02:59:28;;;;;;;10.73;6.20;;;20.60;73.30;;;;;;6241226;23;20012;-72
2023/06/10 03:01:54;;;;;;;7.90;6.43;;;20.60;73.50;;;;;;6241637;23;20038;-71
2023/06/10 03:04:20;;;;;;;7.55;6.57;;;20.60;73.60;;;;;;6241680;23;20353;-71
2023/06/10 03:06:46;;;;;;;7.65;6.70;;;20.60;73.90;;;;;;6240529;23;20117;-71
2023/06/10 03:09:13;;;;;;;8.35;6.20;;;20.60;74.10;;;;;;6241434;23;20001;-71
2023/06/10 03:11:38;;;;;;;8.10;6.85;;;20.50;74.20;;;;;;6241554;23;20024;-71
2023/06/10 03:14:04;;;;;;;13.30;7.55;;;20.50;74.40;;;;;;6241266;23;20019;-71
2023/06/10 03:16:31;;;;;;;8.73;6.57;;;20.50;74.80;;;;;;6241473;23;20457;-71
2023/06/10 03:18:56;;;;;;;10.80;6.90;;;20.50;74.90;;;;;;6241679;23;20371;-71
2023/06/10 03:21:22;;;;;;;10.63;6.70;;;20.50;75.10;;;;;;6241411;23;20031;-71
2023/06/10 03:23:48;;;;;;;7.55;6.15;;;20.40;75.20;;;;;;6214722;23;20004;-71
2023/06/10 03:26:14;;;;;;;10.23;6.35;;;20.40;75.20;;;;;;6241252;23;20007;-71
2023/06/10 03:28:40;;;;;;;8.85;6.25;;;20.40;76.10;;;;;;6240777;23;20085;-71
2023/06/10 03:31:05;;;;;;;8.77;6.50;;;20.40;75.60;;;;;;6241631;23;20370;-71
2023/06/10 03:33:32;;;;;;;7.15;6.22;;;20.40;75.70;;;;;;6241452;23;20075;-71
2023/06/10 03:35:57;;;;;;;8.88;5.97;;;20.40;76.40;;;;;;6241058;23;20023;-71
2023/06/10 03:38:23;;;;;;;7.47;6.60;;;20.30;75.90;;;;;;6241384;23;20434;-71
2023/06/10 03:40:48;;;;;;;9.02;6.93;;;20.30;76.10;;;;;;6241308;23;20706;-71
2023/06/10 03:43:14;;;;;;;9.63;6.57;;;20.30;76.30;;;;;;6213921;23;20398;-71
2023/06/10 03:45:41;;;;;;;8.85;6.70;;;20.30;76.40;;;;;;6241301;23;20004;-71
2023/06/10 03:48:08;;;;;;;9.65;6.63;;;20.20;76.50;;;;;;6241347;23;20311;-71
2023/06/10 03:50:34;;;;;;;11.05;6.75;;;20.20;76.60;;;;;;6241303;23;20058;-71
2023/06/10 03:52:59;;;;;;;9.65;6.97;;;20.20;76.70;;;;;;6241358;23;20334;-71
2023/06/10 03:55:25;;;;;;;9.95;6.78;;;20.20;76.80;;;;;;6240952;23;20000;-71
2023/06/10 03:57:51;;;;;;;8.80;6.80;;;20.20;77.10;;;;;;6240897;23;20000;-71
2023/06/10 04:00:17;;;;;;;9.48;6.85;;;20.20;77.20;;;;;;6241421;23;20004;-71
2023/06/10 04:02:48;;;;;;;7.95;6.22;;;20.20;77.40;;;;;;6241738;23;20099;-71
2023/06/10 04:05:15;;;;;;;10.07;6.53;;;20.10;77.40;;;;;;6241214;23;20023;-71
2023/06/10 04:07:42;;;;;;;8.52;6.45;;;20.10;77.60;;;;;;6214507;23;20007;-71
2023/06/10 04:10:08;;;;;;;8.23;6.38;;;20.10;77.60;;;;;;6241449;23;20326;-71
2023/06/10 04:12:35;;;;;;;8.82;6.47;;;20.10;77.60;;;;;;6240657;23;20478;-71
2023/06/10 04:15:00;;;;;;;8.57;5.80;;;20.10;77.80;;;;;;6241071;23;20422;-71
2023/06/10 04:17:26;;;;;;;7.28;5.95;;;20.10;77.90;;;;;;6241078;23;20019;-72
2023/06/10 04:19:52;;;;;;;11.55;6.30;;;20.10;78.10;;;;;;6242410;23;19996;-71
2023/06/10 04:22:19;;;;;;;9.25;6.20;;;20.10;78.20;;;;;;6243500;23;20000;-71
2023/06/10 04:24:45;;;;;;;8.45;6.57;;;20.10;78.30;;;;;;6242901;23;19996;-71
2023/06/10 04:27:11;;;;;;;9.00;6.68;;;20.00;78.30;;;;;;6242488;23;20015;-71
2023/06/10 04:29:36;;;;;;;10.88;6.53;;;20.10;78.50;;;;;;6243439;23;20007;-72
2023/06/10 04:32:02;;;;;;;8.38;7.00;;;20.00;78.50;;;;;;6216792;23;20001;-71
2023/06/10 04:34:28;;;;;;;16.33;8.23;;;20.10;78.70;;;;;;6243035;23;20063;-71
2023/06/10 04:36:54;;;;;;;8.02;6.75;;;20.10;78.70;;;;;;6216204;23;20094;-71
2023/06/10 04:39:19;;;;;;;7.85;6.97;;;20.00;78.60;;;;;;6242847;23;20000;-71
2023/06/10 04:41:45;;;;;;;9.07;7.10;;;20.10;78.70;;;;;;6242253;23;20056;-71
2023/06/10 04:44:11;;;;;;;11.93;7.18;;;20.10;78.60;;;;;;6242951;23;20007;-71
2023/06/10 04:46:37;;;;;;;7.38;5.55;;;20.10;78.70;;;;;;6216240;23;20004;-71
2023/06/10 04:49:04;;;;;;;9.32;6.07;;;20.10;78.70;;;;;;6242877;23;20010;-71
2023/06/10 04:51:30;;;;;;;9.98;6.45;;;20.10;78.70;;;;;;6243081;23;20004;-71
2023/06/10 04:53:55;;;;;;;8.70;6.65;;;20.10;79.10;;;;;;6242652;23;20050;-71
2023/06/10 04:56:22;;;;;;;9.07;6.97;;;20.10;79.00;;;;;;6242193;23;20315;-71
2023/06/10 04:58:47;;;;;;;8.52;6.80;;;20.10;79.10;;;;;;6242650;23;20362;-71
2023/06/10 05:01:13;;;;;;;12.13;7.03;;;20.10;79.20;;;;;;6242840;23;20053;-71
2023/06/10 05:03:39;;;;;;;7.15;6.25;;;20.20;79.40;;;;;;6242841;23;20023;-71
2023/06/10 05:06:04;;;;;;;9.57;6.90;;;20.20;79.40;;;;;;6242973;23;20015;-70
2023/06/10 05:08:30;;;;;;;8.15;6.03;;;20.20;79.30;;;;;;6242930;23;20004;-71
2023/06/10 05:10:55;;;;;;;7.63;6.78;;;20.20;79.30;;;;;;6242257;23;20005;-71
2023/06/10 05:13:21;;;;;;;7.90;7.05;;;20.30;79.30;;;;;;6242663;23;20067;-71
2023/06/10 05:15:47;;;;;;;11.57;6.97;;;20.30;79.30;;;;;;6242831;23;20000;-71
2023/06/10 05:18:12;;;;;;;8.73;7.43;;;20.30;79.30;;;;;;6242521;23;20003;-71
2023/06/10 05:20:38;;;;;;;9.52;7.38;;;20.30;79.20;;;;;;6242563;23;20433;-71
2023/06/10 05:23:04;;;;;;;11.00;6.47;;;20.40;79.20;;;;;;6242873;23;20011;-71
2023/06/10 05:25:33;;;;;;;10.18;7.38;;;20.40;79.10;;;;;;6242164;23;20012;-71
2023/06/10 05:27:58;;;;;;;8.98;6.43;;;20.40;79.10;;;;;;6242274;23;20059;-71
2023/06/10 05:30:25;;;;;;;8.32;6.40;;;20.50;79.20;;;;;;6215727;23;20067;-71
2023/06/10 05:32:51;;;;;;;9.20;6.60;;;20.50;79.10;;;;;;6241847;23;20000;-71
2023/06/10 05:35:17;;;;;;;8.35;6.07;;;20.60;79.20;;;;;;6242259;23;19997;-71
2023/06/10 05:37:43;;;;;;;10.82;7.25;;;20.60;79.10;;;;;;6242495;23;20062;-71
2023/06/10 05:40:09;;;;;;;7.43;5.90;;;20.60;79.00;;;;;;6241856;23;20004;-71
2023/06/10 05:42:35;;;;;;;9.75;7.07;;;20.60;78.80;;;;;;6242625;23;20458;-71
2023/06/10 05:45:01;;;;;;;18.92;7.47;;;20.70;78.70;;;;;;6242484;23;20003;-72
2023/06/10 05:47:26;;;;;;;8.48;6.93;;;20.70;78.70;;;;;;6242316;23;20354;-72
2023/06/10 05:49:52;;;;;;;12.60;8.02;;;20.70;78.60;;;;;;6242334;23;20032;-72
2023/06/10 05:52:18;;;;;;;7.13;6.22;;;20.80;78.80;;;;;;6242289;23;20007;-72
2023/06/10 05:54:43;;;;;;;9.45;6.90;;;20.80;78.90;;;;;;6241625;23;20464;-71
2023/06/10 05:57:10;;;;;;;10.10;7.93;;;20.90;78.60;;;;;;6242061;23;20000;-71
2023/06/10 05:59:36;;;;;;;8.32;6.07;;;21.00;78.50;;;;;;6213033;23;20004;-71
2023/06/10 06:02:01;;;;;;;10.70;7.25;;;21.00;78.50;;;;;;6240386;23;20019;-71
2023/06/10 06:04:27;;;;;;;9.65;7.03;;;21.00;78.30;;;;;;6241290;23;20091;-71
2023/06/10 06:06:52;;;;;;;8.25;6.63;;;21.00;78.10;;;;;;6242421;23;20000;-71
2023/06/10 06:09:18;;;;;;;10.13;7.25;;;21.10;78.20;;;;;;6241434;23;20334;-71
2023/06/10 06:11:44;;;;;;;8.65;7.20;;;21.10;77.90;;;;;;6215223;23;20032;-71
2023/06/10 06:14:09;;;;;;;9.82;7.05;;;21.10;77.90;;;;;;6242139;23;20075;-71
2023/06/10 06:16:35;;;;;;;10.18;7.20;;;21.20;78.00;;;;;;6242275;23;20358;-71
2023/06/10 06:19:00;;;;;;;9.35;7.20;;;21.30;78.00;;;;;;6241220;23;20023;-71
2023/06/10 06:21:26;;;;;;;9.32;6.85;;;21.30;77.80;;;;;;6240279;23;19999;-71
2023/06/10 06:23:52;;;;;;;9.88;6.90;;;21.30;77.50;;;;;;6212158;23;20031;-71
2023/06/10 06:26:17;;;;;;;8.13;6.53;;;21.40;77.50;;;;;;6240851;23;20050;-71
2023/06/10 06:28:43;;;;;;;9.57;7.03;;;21.40;77.30;;;;;;6240824;23;20020;-71
2023/06/10 06:31:08;;;;;;;8.65;6.18;;;21.40;77.30;;;;;;6241375;23;20000;-71
2023/06/10 06:33:34;;;;;;;10.40;6.90;;;21.50;77.20;;;;;;6241893;23;20374;-71
2023/06/10 06:36:00;;;;;;;7.38;6.53;;;21.50;77.40;;;;;;6242047;23;19996;-71
2023/06/10 06:38:26;;;;;;;6.95;5.47;;;21.60;78.10;;;;;;6241382;23;20000;-71
2023/06/10 06:40:52;;;;;;;8.48;6.13;;;21.70;77.70;;;;;;6241795;23;20079;-71
2023/06/10 06:43:18;;;;;;;10.90;7.40;;;21.80;77.50;;;;;;6214827;23;20444;-71
2023/06/10 06:45:44;;;;;;;8.75;6.05;;;21.80;77.50;;;;;;6242016;23;20011;-71
2023/06/10 06:48:11;;;;;;;8.02;6.57;;;21.90;77.20;;;;;;6242077;23;20011;-72
2023/06/10 06:50:37;;;;;;;9.55;6.72;;;21.90;76.90;;;;;;6241319;23;19997;-71
2023/06/10 06:53:03;;;;;;;10.45;7.38;;;22.00;76.80;;;;;;6241900;23;20099;-82
2023/06/10 06:55:29;;;;;;;8.35;6.88;;;22.00;77.00;;;;;;6243713;23;20000;-83
2023/06/10 06:57:55;;;;;;;8.45;6.03;;;22.10;76.70;;;;;;6214918;23;20153;-83
2023/06/10 07:00:21;;;;;;;6.80;6.10;;;22.10;76.40;;;;;;6241907;23;20410;-82
2023/06/10 07:02:48;;;;;;;9.68;7.43;;;22.10;76.50;;;;;;6214781;23;20004;-82
2023/06/10 07:05:14;;;;;;;8.85;6.38;;;22.20;76.30;;;;;;6214033;23;20011;-83
2023/06/10 07:07:39;;;;;;;9.82;7.22;;;22.20;76.70;;;;;;6214091;23;20008;-83
2023/06/10 07:10:05;;;;;;;10.95;7.28;;;22.20;76.10;;;;;;6214743;23;20091;-83
2023/06/10 07:12:31;;;;;;;8.88;6.57;;;22.30;76.10;;;;;;6214806;23;20008;-83
2023/06/10 07:14:56;;;;;;;9.07;7.13;;;22.40;76.00;;;;;;6214590;23;20111;-83
2023/06/10 07:17:22;;;;;;;9.52;7.03;;;22.40;76.00;;;;;;6241530;23;20097;-82
2023/06/10 07:19:47;;;;;;;7.78;6.68;;;22.40;75.60;;;;;;6216575;23;20019;-84
2023/06/10 07:22:13;;;;;;;7.65;5.90;;;22.40;75.00;;;;;;6218663;23;20425;-83
2023/06/10 07:24:39;;;;;;;7.25;5.88;;;22.40;75.30;;;;;;6219279;23;20434;-83
2023/06/10 07:27:05;;;;;;;9.02;6.25;;;22.50;75.30;;;;;;6220175;23;20134;-82
2023/06/10 07:29:31;;;;;;;9.30;6.28;;;22.60;75.90;;;;;;6241802;23;20012;-83
2023/06/10 07:31:57;;;;;;;10.52;6.35;;;22.70;76.10;;;;;;6241614;23;20004;-82
2023/06/10 07:34:22;;;;;;;6.40;5.38;;;22.80;74.90;;;;;;6241214;23;20004;-83
2023/06/10 07:36:48;;;;;;;12.88;6.70;;;22.90;74.70;;;;;;6214627;23;20426;-83
2023/06/10 07:39:13;;;;;;;7.57;5.85;;;23.00;74.50;;;;;;6241212;23;20045;-83
2023/06/10 07:41:39;;;;;;;10.52;5.95;;;23.10;74.30;;;;;;6241258;23;20296;-83
2023/06/10 07:44:04;;;;;;;7.80;5.90;;;23.20;73.60;;;;;;6214786;23;20027;-81
2023/06/10 07:46:30;;;;;;;11.45;6.18;;;23.30;73.10;;;;;;6241232;23;20030;-82
2023/06/10 07:48:56;;;;;;;8.70;5.78;;;23.40;72.70;;;;;;6240282;23;20080;-82
2023/06/10 07:51:22;;;;;;;8.23;6.20;;;23.50;72.80;;;;;;6214115;23;20062;-82
2023/06/10 07:53:47;;;;;;;8.18;5.28;;;23.60;72.90;;;;;;6240780;23;20383;-82
2023/06/10 07:56:13;;;;;;;10.35;6.63;;;23.70;72.30;;;;;;6240962;23;20023;-81
2023/06/10 07:58:38;;;;;;;8.00;5.80;;;23.80;71.80;;;;;;6213956;23;20027;-80
2023/06/10 08:01:04;;;;;;;10.48;6.32;;;23.80;71.80;;;;;;6214446;23;20082;-81
2023/06/10 08:03:30;;;;;;;8.05;6.53;;;23.90;71.80;;;;;;6240463;23;20007;-81
2023/06/10 08:05:55;;;;;;;10.93;6.10;;;24.00;71.30;;;;;;6214016;23;20004;-81
2023/06/10 08:08:21;;;;;;;10.02;6.32;;;24.10;71.40;;;;;;6216416;23;20422;-83
2023/06/10 08:10:47;;;;;;;9.30;6.05;;;24.30;71.00;;;;;;6217213;23;20008;-83
2023/06/10 08:13:12;;;;;;;9.18;6.57;;;24.30;71.00;;;;;;6244859;23;20000;-83
2023/06/10 08:15:38;;;;;;;11.48;6.70;;;24.40;70.90;;;;;;6215032;23;20027;-83
2023/06/10 08:18:03;;;;;;;10.90;6.68;;;24.50;70.00;;;;;;6214230;23;20361;-82
2023/06/10 08:20:29;;;;;;;11.57;6.43;;;24.50;70.00;;;;;;6214677;23;20028;-83
2023/06/10 08:22:55;;;;;;;8.60;6.97;;;24.60;69.70;;;;;;6241465;23;20005;-83
2023/06/10 08:25:22;;;;;;;7.25;6.00;;;24.70;69.60;;;;;;6241124;23;20014;-82
2023/06/10 08:27:47;;;;;;;7.65;6.03;;;24.70;69.50;;;;;;6214071;23;20043;-83
2023/06/10 08:30:13;;;;;;;9.70;5.65;;;24.80;69.70;;;;;;6241126;23;20742;-83
2023/06/10 08:32:39;;;;;;;7.53;6.00;;;24.80;69.40;;;;;;6240917;23;19996;-84
2023/06/10 08:35:05;;;;;;;9.23;5.20;;;24.80;69.70;;;;;;6241182;23;20082;-82
2023/06/10 08:37:31;;;;;;;5.82;5.13;;;24.90;69.40;;;;;;6240812;23;20008;-83
2023/06/10 08:39:56;;;;;;;8.18;5.70;;;25.00;69.10;;;;;;6214026;23;20008;-80
2023/06/10 08:42:28;;;;;;;10.50;5.80;;;25.10;69.20;;;;;;6241557;23;20008;-83
2023/06/10 08:44:55;;;;;;;9.52;6.20;;;25.20;69.30;;;;;;6216201;23;20008;-84
2023/06/10 08:47:24;;;;;;;8.68;6.63;;;25.30;69.30;;;;;;6242440;23;20004;-83
2023/06/10 08:49:50;;;;;;;7.82;6.22;;;25.40;69.00;;;;;;6241399;23;20007;-82
2023/06/10 08:52:18;;;;;;;7.05;5.72;;;25.60;69.00;;;;;;6214825;23;19996;-87
2023/06/10 08:54:47;;;;;;;9.07;5.88;;;25.70;68.60;;;;;;6216462;23;20007;-80
2023/06/10 08:57:13;;;;;;;7.25;6.47;;;25.70;68.70;;;;;;6214083;23;20091;-80
2023/06/10 08:59:39;;;;;;;8.98;5.68;;;25.80;68.30;;;;;;6214880;23;20027;-79
2023/06/10 09:02:06;;;;;;;10.65;6.38;;;25.90;67.70;;;;;;6242593;23;19992;-80
2023/06/10 09:04:33;;;;;;;5.50;4.97;;;26.00;67.80;;;;;;6215936;23;20011;-80
2023/06/10 09:06:59;;;;;;;7.95;5.63;;;26.10;67.50;;;;;;6243018;23;20036;-82
2023/06/10 09:09:28;;;;;;;7.30;5.75;;;26.10;67.20;;;;;;6215792;23;20061;-85
2023/06/10 09:11:53;;;;;;;10.90;5.57;;;26.20;67.40;;;;;;6215750;23;20008;-82
2023/06/10 09:14:19;;;;;;;6.75;5.72;;;26.30;67.70;;;;;;6215458;23;20038;-82
2023/06/10 09:16:46;;;;;;;6.82;5.75;;;26.40;67.20;;;;;;6215123;23;20091;-82
2023/06/10 09:19:12;;;;;;;8.27;5.68;;;26.40;67.10;;;;;;6215806;23;20128;-83
2023/06/10 09:21:38;;;;;;;6.72;5.35;;;26.50;66.60;;;;;;6242180;23;20406;-82
2023/06/10 09:24:05;;;;;;;6.93;5.00;;;26.60;65.90;;;;;;6215281;23;20032;-81
2023/06/10 09:26:30;;;;;;;8.20;6.05;;;26.60;65.60;;;;;;6242302;23;20015;-82
2023/06/10 09:29:11;;;;;;;8.75;5.63;;;26.70;65.70;;;;;;6214972;23;20024;-83
2023/06/10 09:31:38;;;;;;;8.93;5.38;;;26.70;65.60;;;;;;6241645;23;20366;-83
2023/06/10 09:34:13;;;;;;;7.05;5.45;;;26.70;65.00;;;;;;6242587;23;20074;-82
2023/06/10 09:36:40;;;;;;;10.13;5.70;;;26.80;65.30;;;;;;6242271;23;19996;-83
2023/06/10 09:39:16;;;;;;;6.72;5.35;;;26.80;65.40;;;;;;6216712;23;20413;-83
2023/06/10 09:41:44;;;;;;;8.20;5.18;;;26.90;65.00;;;;;;6243023;23;20000;-82
2023/06/10 09:44:18;;;;;;;6.45;4.55;;;26.90;64.90;;;;;;6216244;23;20007;-83
2023/06/10 09:46:50;;;;;;;6.97;4.32;;;27.00;64.10;;;;;;6241914;23;20007;-82
2023/06/10 09:49:19;;;;;;;7.47;4.78;;;27.00;62.90;;;;;;6214954;23;20426;-81
2023/06/10 09:51:52;;;;;;;5.82;4.78;;;27.00;62.90;;;;;;6214822;23;20000;-82
2023/06/10 09:54:19;;;;;;;5.60;4.60;;;27.10;63.40;;;;;;6215194;23;20003;-82
2023/06/10 09:56:51;;;;;;;7.70;4.90;;;27.20;63.20;;;;;;6243314;23;20020;-87
2023/06/10 09:59:27;;;;;;;7.03;4.90;;;27.20;63.10;;;;;;6224385;23;20010;-87
2023/06/10 10:01:55;;;;;;;6.35;4.70;;;27.30;62.90;;;;;;6221227;23;20406;-86
2023/06/10 10:04:25;;;;;;;7.95;5.15;;;27.40;62.20;;;;;;6221327;23;20010;-85
2023/06/10 10:06:51;;;;;;;5.85;5.05;;;27.50;61.20;;;;;;6250996;23;20001;-85
2023/06/10 10:09:16;;;;;;;7.03;5.43;;;27.50;61.60;;;;;;6252600;23;20000;-86
2023/06/10 10:11:43;;;;;;;5.90;5.32;;;27.50;61.20;;;;;;6244696;23;19996;-86
2023/06/10 10:14:10;;;;;;;6.43;4.90;;;27.60;61.40;;;;;;6242570;23;20058;-86
2023/06/10 10:16:41;;;;;;;4.97;4.50;;;27.60;61.30;;;;;;6243329;23;20043;-84
2023/06/10 10:19:22;;;;;;;7.88;5.00;;;27.70;60.90;;;;;;6216121;23;20039;-87
2023/06/10 10:21:59;;;;;;;9.48;5.35;;;27.80;60.40;;;;;;6215669;23;20015;-86
2023/06/10 10:24:38;;;;;;;5.68;4.63;;;27.80;60.60;;;;;;6245021;23;20004;-83
2023/06/10 10:27:13;;;;;;;6.97;4.45;;;27.90;60.70;;;;;;6221619;23;20008;-84
2023/06/10 10:29:40;;;;;;;5.90;4.53;;;27.90;59.70;;;;;;6245885;23;20023;-87
2023/06/10 10:32:08;;;;;;;5.45;4.95;;;28.00;59.10;;;;;;6245315;23;20072;-86
2023/06/10 10:34:33;;;;;;;5.40;4.63;;;28.00;58.80;;;;;;6243550;23;20008;-85
2023/06/10 10:36:59;;;;;;;5.80;4.80;;;28.00;58.90;;;;;;6216099;23;20079;-82
2023/06/10 10:39:28;;;;;;;5.38;4.55;;;28.00;58.40;;;;;;6242497;23;20005;-83
2023/06/10 10:41:54;;;;;;;4.78;4.28;;;28.10;58.40;;;;;;6241738;23;19996;-84
2023/06/10 10:44:20;;;;;;;5.28;4.60;;;28.10;57.80;;;;;;6214216;23;20032;-83
2023/06/10 10:46:51;;;;;;;7.45;4.50;;;28.10;57.60;;;;;;6241625;23;20087;-83
2023/06/10 10:49:17;;;;;;;4.68;4.28;;;28.20;57.60;;;;;;6214661;23;20489;-82
2023/06/10 10:51:57;;;;;;;5.50;4.10;;;28.20;58.10;;;;;;6241683;23;20027;-82
2023/06/10 10:54:37;;;;;;;5.63;4.32;;;28.30;56.70;;;;;;6241491;23;20004;-82
2023/06/10 10:57:08;;;;;;;5.60;4.75;;;28.30;56.40;;;;;;6214696;23;20421;-82
2023/06/10 10:59:44;;;;;;;6.63;4.45;;;28.30;56.80;;;;;;6241508;23;20000;-83
2023/06/10 11:02:18;;;;;;;4.38;3.97;;;28.40;57.50;;;;;;6240573;23;19996;-81
2023/06/10 11:04:47;;;;;;;5.75;4.90;;;28.40;57.60;;;;;;6241025;23;20218;-81
2023/06/10 11:07:15;;;;;;;6.07;4.20;;;28.50;56.80;;;;;;6241141;23;20011;-81
2023/06/10 11:10:11;;;;;;;8.13;4.38;;;28.60;56.00;;;;;;6241365;23;20430;-81
2023/06/10 11:12:46;;;;;;;4.68;3.97;;;28.60;55.70;;;;;;6215091;23;20004;-83
2023/06/10 11:15:28;;;;;;;7.13;4.90;;;28.60;55.90;;;;;;6243871;23;20007;-82
2023/06/10 11:18:11;;;;;;;6.43;4.45;;;28.60;55.20;;;;;;6241963;23;20012;-83
2023/06/10 11:20:49;;;;;;;5.70;4.22;;;28.70;55.60;;;;;;6242021;23;20006;-82
2023/06/10 11:23:32;;;;;;;5.97;4.57;;;28.60;54.10;;;;;;6242197;23;20031;-82
2023/06/10 11:26:16;;;;;;;6.07;4.57;;;28.60;54.20;;;;;;6241549;23;20067;-82
2023/06/10 11:29:04;;;;;;;4.22;3.83;;;28.60;53.50;;;;;;6214393;23;20039;-84
2023/06/10 11:31:32;;;;;;;5.82;3.90;;;28.60;53.80;;;;;;6241927;23;20000;-83
2023/06/10 11:34:06;;;;;;;5.00;4.53;;;28.60;53.40;;;;;;6241700;23;20487;-83
2023/06/10 11:36:33;;;;;;;8.25;4.57;;;28.60;53.30;;;;;;6214921;23;20035;-84
2023/06/10 11:39:01;;;;;;;5.05;4.30;;;28.70;53.00;;;;;;6214566;23;20446;-82
2023/06/10 11:41:28;;;;;;;4.43;4.03;;;28.70;53.40;;;;;;6241196;23;19997;-83
2023/06/10 11:43:58;;;;;;;5.88;4.63;;;28.70;53.30;;;;;;6241617;23;20087;-82
2023/06/10 11:46:27;;;;;;;4.88;4.15;;;28.80;53.30;;;;;;6241355;23;20369;-83
2023/06/10 11:48:54;;;;;;;5.60;4.55;;;28.80;52.60;;;;;;6214661;23;20011;-84
2023/06/10 11:51:20;;;;;;;5.10;3.58;;;28.90;52.60;;;;;;6241514;23;20062;-83
2023/06/10 11:53:48;;;;;;;5.57;4.07;;;28.90;52.40;;;;;;6241397;23;20000;-83
2023/06/10 11:56:14;;;;;;;5.07;4.63;;;28.90;52.80;;;;;;6242111;23;20035;-83
2023/06/10 11:58:45;;;;;;;5.18;4.68;;;28.90;52.60;;;;;;6247077;23;20049;-82
2023/06/10 12:01:10;;;;;;;5.63;4.88;;;29.00;51.80;;;;;;6217130;23;20087;-83
2023/06/10 12:03:37;;;;;;;4.80;4.32;;;29.00;51.70;;;;;;6216600;23;20259;-84
2023/06/10 12:06:06;;;;;;;5.40;4.90;;;29.00;51.90;;;;;;6242416;23;20009;-83
2023/06/10 12:08:33;;;;;;;7.60;4.72;;;29.00;52.00;;;;;;6241287;23;20330;-77
2023/06/10 12:10:59;;;;;;;5.30;4.80;;;29.00;52.00;;;;;;6240299;23;20008;-79
2023/06/10 12:13:28;;;;;;;5.85;4.78;;;29.00;51.90;;;;;;6240816;23;20062;-74
2023/06/10 12:15:54;;;;;;;5.05;4.43;;;29.10;52.20;;;;;;6240981;23;20445;-78
2023/06/10 12:18:23;;;;;;;6.07;4.57;;;29.10;53.10;;;;;;6242867;23;20010;-80
2023/06/10 12:20:50;;;;;;;6.20;4.40;;;29.10;52.40;;;;;;6214308;23;20379;-79
2023/06/10 12:23:17;;;;;;;5.47;4.10;;;29.10;51.10;;;;;;6242322;23;19996;-83
2023/06/10 12:25:55;;;;;;;7.15;4.68;;;29.10;51.50;;;;;;6240250;23;20004;-79
2023/06/10 12:28:22;;;;;;;4.45;3.80;;;29.10;51.20;;;;;;6240568;23;20019;-80
2023/06/10 12:30:48;;;;;;;5.07;4.18;;;29.20;51.50;;;;;;6213865;23;20004;-81
2023/06/10 12:33:18;;;;;;;6.05;4.90;;;29.20;51.90;;;;;;6213765;23;20008;-81
2023/06/10 12:35:49;;;;;;;8.80;6.03;;;29.30;52.10;;;;;;6214740;23;20020;-83
2023/06/10 12:38:21;;;;;;;6.78;4.63;;;29.30;51.50;;;;;;6243772;23;20482;-83
2023/06/10 12:40:47;;;;;;;9.23;5.60;;;29.30;51.50;;;;;;6246211;23;20071;-83
2023/06/10 12:43:13;;;;;;;6.72;5.22;;;29.40;51.30;;;;;;6252711;23;20007;-82
2023/06/10 12:45:42;;;;;;;6.40;4.55;;;29.40;53.20;;;;;;6257827;23;20000;-85